Amboy, Iowa
Current Conditions -  °F | °C
As of 12:35 PM on Friday 31 Oct 2014 (Local Time) from KTNU Reporting Station
Clear Clear  
Wind Chill: -2°   Ceiling: Unl
Heat Index:   Visibility: 10mi
Dew Point: -7°   Wind: 17mph
Humidity: 48%   Direction: 350°N
Pressure: 30.47"   Gusts: 25mph
Location:  41.7317°N, 93.0122°W
Report Text: KTNU 311735Z AUTO 35015G22KT 10SM CLR 03/M07 A3047 RMK AO2
Loading
Personal Weather Stations






























Interactive Weather Map
Tropical Storm Tracking
New forecast layout! Learn more

10-Day Weather Forecast

Advertisements
Track Severe Weather on mobile